createdAt,value
2023-03-12T00:00:20.796Z,14.94
2023-03-12T00:02:47.097Z,14.91
2023-03-12T00:05:13.657Z,14.89
2023-03-12T00:07:40.383Z,14.89
2023-03-12T00:10:06.699Z,14.90
2023-03-12T00:12:33.075Z,14.89
2023-03-12T00:14:59.524Z,14.87
2023-03-12T00:17:25.946Z,14.87
2023-03-12T00:19:52.312Z,14.86
2023-03-12T00:22:18.694Z,14.86
2023-03-12T00:24:45.023Z,14.84
2023-03-12T00:27:11.385Z,14.80
2023-03-12T00:29:37.708Z,14.80
2023-03-12T00:32:04.059Z,14.80
2023-03-12T00:34:30.507Z,14.79
2023-03-12T00:36:57.047Z,14.82
2023-03-12T00:39:23.428Z,14.80
2023-03-12T00:41:49.814Z,14.76
2023-03-12T00:44:16.362Z,14.77
2023-03-12T00:46:42.753Z,14.75
2023-03-12T00:49:09.368Z,14.76
2023-03-12T00:51:35.908Z,14.75
2023-03-12T00:54:02.268Z,14.73
2023-03-12T00:56:28.706Z,14.72
2023-03-12T00:58:55.012Z,14.70
2023-03-12T01:01:21.606Z,14.69
2023-03-12T01:03:48.316Z,14.68
2023-03-12T01:06:14.683Z,14.71
2023-03-12T01:08:41.107Z,14.68
2023-03-12T01:11:07.440Z,14.69
2023-03-12T01:13:34.187Z,14.68
2023-03-12T01:16:00.714Z,14.66
2023-03-12T01:18:27.529Z,14.66
2023-03-12T01:20:53.891Z,14.65
2023-03-12T01:23:20.339Z,14.64
2023-03-12T01:25:47.274Z,14.63
2023-03-12T01:28:13.652Z,14.62
2023-03-12T01:30:40.010Z,14.60
2023-03-12T01:33:06.529Z,14.61
2023-03-12T01:35:32.935Z,14.61
2023-03-12T01:37:59.408Z,14.61
2023-03-12T01:40:25.732Z,14.60
2023-03-12T01:42:52.273Z,14.60
2023-03-12T01:45:18.748Z,14.58
2023-03-12T01:47:45.298Z,14.56
2023-03-12T01:50:11.726Z,14.55
2023-03-12T01:52:38.141Z,14.56
2023-03-12T01:55:04.538Z,14.53
2023-03-12T01:57:30.946Z,14.53
2023-03-12T01:59:57.359Z,14.52
2023-03-12T02:02:23.728Z,14.52
2023-03-12T02:04:51.203Z,14.51
2023-03-12T02:07:18.239Z,14.49
2023-03-12T02:09:44.945Z,14.49
2023-03-12T02:12:11.341Z,14.48
2023-03-12T02:14:38.075Z,14.47
2023-03-12T02:17:04.946Z,14.48
2023-03-12T02:19:32.186Z,14.48
2023-03-12T02:21:59.510Z,14.46
2023-03-12T02:24:28.062Z,14.46
2023-03-12T02:26:54.433Z,14.44
2023-03-12T02:29:20.974Z,14.41
2023-03-12T02:31:47.336Z,14.39
2023-03-12T02:34:14.366Z,14.39
2023-03-12T02:36:41.333Z,14.40
2023-03-12T02:39:07.848Z,14.39
2023-03-12T02:41:34.262Z,14.38
2023-03-12T02:44:01.277Z,14.39
2023-03-12T02:46:27.658Z,14.38
2023-03-12T02:48:54.027Z,14.37
2023-03-12T02:51:20.336Z,14.35
2023-03-12T02:53:46.746Z,14.35
2023-03-12T02:56:13.158Z,14.33
2023-03-12T02:58:39.806Z,14.33
2023-03-12T03:01:06.305Z,14.32
2023-03-12T03:03:32.823Z,14.32
2023-03-12T03:05:59.192Z,14.30
2023-03-12T03:08:25.532Z,14.30
2023-03-12T03:10:52.049Z,14.29
2023-03-12T03:13:18.822Z,14.28
2023-03-12T03:15:45.621Z,14.26
2023-03-12T03:18:12.438Z,14.26
2023-03-12T03:20:39.685Z,14.24
2023-03-12T03:23:06.843Z,14.26
2023-03-12T03:25:33.223Z,14.24
2023-03-12T03:27:59.911Z,14.22
2023-03-12T03:30:26.267Z,14.23
2023-03-12T03:32:52.721Z,14.21
2023-03-12T03:35:19.630Z,14.21
2023-03-12T03:37:46.234Z,14.21
2023-03-12T03:40:12.764Z,14.20
2023-03-12T03:42:39.445Z,14.20
2023-03-12T03:45:05.846Z,14.19
2023-03-12T03:47:32.267Z,14.18
2023-03-12T03:49:59.251Z,14.18
2023-03-12T03:52:26.076Z,14.17
2023-03-12T03:54:52.560Z,14.17
2023-03-12T03:57:19.576Z,14.16
2023-03-12T03:59:46.531Z,14.16
2023-03-12T04:02:13.103Z,14.12
2023-03-12T04:04:41.863Z,14.12
2023-03-12T04:07:09.130Z,14.12
2023-03-12T04:09:36.482Z,14.11
2023-03-12T04:12:04.189Z,14.10
2023-03-12T04:14:31.351Z,14.10
2023-03-12T04:16:58.380Z,14.07
2023-03-12T04:19:25.202Z,14.06
2023-03-12T04:21:51.966Z,14.06
2023-03-12T04:24:19.562Z,14.05
2023-03-12T04:26:46.639Z,14.02
2023-03-12T04:29:13.946Z,14.04
2023-03-12T04:31:41.132Z,14.02
2023-03-12T04:34:07.907Z,14.04
2023-03-12T04:36:34.319Z,14.03
2023-03-12T04:39:01.125Z,14.02
2023-03-12T04:41:27.611Z,14.00
2023-03-12T04:43:54.422Z,13.99
2023-03-12T04:46:20.936Z,13.99
2023-03-12T04:48:47.302Z,13.95
2023-03-12T04:51:13.602Z,13.98
2023-03-12T04:53:40.096Z,13.97
2023-03-12T04:56:06.450Z,13.96
2023-03-12T04:58:34.815Z,13.96
2023-03-12T05:01:01.301Z,13.97
2023-03-12T05:03:28.073Z,13.94
2023-03-12T05:05:54.473Z,13.93
2023-03-12T05:08:20.847Z,13.94
2023-03-12T05:10:47.291Z,13.93
2023-03-12T05:13:13.695Z,13.93
2023-03-12T05:15:40.105Z,13.91
2023-03-12T05:18:06.718Z,13.89
2023-03-12T05:20:33.220Z,13.89
2023-03-12T05:23:00.018Z,13.88
2023-03-12T05:25:26.731Z,13.90
2023-03-12T05:27:53.123Z,13.88
2023-03-12T05:30:19.850Z,13.85
2023-03-12T05:32:46.392Z,13.86
2023-03-12T05:35:13.287Z,13.85
2023-03-12T05:37:39.956Z,13.83
2023-03-12T05:40:06.284Z,13.83
2023-03-12T05:42:33.041Z,13.82
2023-03-12T05:44:59.527Z,13.81
2023-03-12T05:47:26.181Z,13.82
2023-03-12T05:49:52.870Z,13.79
2023-03-12T05:52:19.306Z,13.79
2023-03-12T05:54:45.650Z,13.76
2023-03-12T05:57:11.955Z,13.75
2023-03-12T05:59:38.228Z,13.75
2023-03-12T06:02:04.764Z,13.75
2023-03-12T06:04:31.283Z,13.74
2023-03-12T06:06:57.687Z,13.70
2023-03-12T06:09:24.120Z,13.71
2023-03-12T06:11:50.668Z,13.70
2023-03-12T06:14:17.246Z,13.67
2023-03-12T06:16:43.717Z,13.68
2023-03-12T06:19:10.424Z,13.68
2023-03-12T06:21:36.922Z,13.68
2023-03-12T06:24:03.337Z,13.67
2023-03-12T06:26:29.767Z,13.66
2023-03-12T06:28:56.322Z,13.66
2023-03-12T06:31:22.892Z,13.63
2023-03-12T06:33:49.565Z,13.62
2023-03-12T06:36:16.151Z,13.61
2023-03-12T06:38:42.626Z,13.59
2023-03-12T06:41:08.954Z,13.58
2023-03-12T06:43:35.639Z,13.57
2023-03-12T06:46:02.149Z,13.56
2023-03-12T06:48:28.845Z,13.55
2023-03-12T06:50:55.154Z,13.54
2023-03-12T06:53:21.599Z,13.53
2023-03-12T06:55:48.002Z,13.53
2023-03-12T06:58:14.622Z,13.52
2023-03-12T07:00:40.974Z,13.53
2023-03-12T07:03:07.345Z,13.53
2023-03-12T07:05:33.730Z,13.52
2023-03-12T07:08:00.158Z,13.52
2023-03-12T07:10:27.003Z,13.50
2023-03-12T07:12:53.636Z,13.51
2023-03-12T07:15:20.018Z,13.51
2023-03-12T07:17:46.334Z,13.49
2023-03-12T07:20:12.759Z,13.49
2023-03-12T07:22:39.410Z,13.47
2023-03-12T07:25:05.874Z,13.47
2023-03-12T07:27:32.234Z,13.48
2023-03-12T07:29:58.904Z,13.49
2023-03-12T07:32:25.910Z,13.48
2023-03-12T07:34:52.392Z,13.48
2023-03-12T07:37:18.820Z,13.46
2023-03-12T07:39:45.310Z,13.46
2023-03-12T07:42:11.734Z,13.44
2023-03-12T07:44:38.297Z,13.46
2023-03-12T07:47:20.722Z,13.44
2023-03-12T07:49:49.731Z,13.43
2023-03-12T07:52:16.228Z,13.45
2023-03-12T07:54:42.741Z,13.44
2023-03-12T07:57:09.188Z,13.44
2023-03-12T07:59:35.853Z,13.44
2023-03-12T08:02:02.532Z,13.42
2023-03-12T08:04:29.277Z,13.44
2023-03-12T08:06:55.671Z,13.42
2023-03-12T08:09:22.263Z,13.42
2023-03-12T08:11:49.171Z,13.41
2023-03-12T08:14:15.555Z,13.41
2023-03-12T08:16:42.021Z,13.40
2023-03-12T08:19:08.508Z,13.41
2023-03-12T08:21:35.025Z,13.38
2023-03-12T08:24:01.719Z,13.40
2023-03-12T08:26:28.289Z,13.38
2023-03-12T08:28:54.618Z,13.38
2023-03-12T08:31:21.152Z,13.38
2023-03-12T08:33:47.569Z,13.39
2023-03-12T08:36:13.987Z,13.38
2023-03-12T08:38:40.560Z,13.38
2023-03-12T08:41:07.041Z,13.38
2023-03-12T08:43:33.494Z,13.36
2023-03-12T08:46:00.138Z,13.35
2023-03-12T08:48:26.561Z,13.35
2023-03-12T08:50:52.952Z,13.36
2023-03-12T08:53:19.250Z,13.34
2023-03-12T08:55:45.733Z,13.35
2023-03-12T08:58:12.198Z,13.34
2023-03-12T09:00:38.752Z,13.36
2023-03-12T09:03:05.517Z,13.35
2023-03-12T09:05:31.976Z,13.35
2023-03-12T09:07:58.572Z,13.33
2023-03-12T09:10:24.891Z,13.32
2023-03-12T09:12:51.962Z,13.31
2023-03-12T09:15:18.431Z,13.31
2023-03-12T09:17:44.789Z,13.30
2023-03-12T09:20:11.133Z,13.30
2023-03-12T09:22:37.741Z,13.32
2023-03-12T09:25:04.155Z,13.30
2023-03-12T09:27:30.473Z,13.30
2023-03-12T09:30:00.552Z,13.30
2023-03-12T09:32:27.941Z,13.29
2023-03-12T09:34:54.463Z,13.29
2023-03-12T09:37:23.651Z,13.29
2023-03-12T09:39:50.402Z,13.29
2023-03-12T09:42:17.305Z,13.28
2023-03-12T09:44:43.811Z,13.28
2023-03-12T09:47:10.335Z,13.28
2023-03-12T09:49:37.295Z,13.28
2023-03-12T09:52:03.661Z,13.28
2023-03-12T09:54:30.111Z,13.28
2023-03-12T09:56:56.738Z,13.27
2023-03-12T09:59:23.451Z,13.27
2023-03-12T10:01:50.079Z,13.29
2023-03-12T10:04:16.548Z,13.27
2023-03-12T10:06:43.021Z,13.27
2023-03-12T10:09:09.481Z,13.27
2023-03-12T10:11:35.785Z,13.28
2023-03-12T10:14:02.250Z,13.25
2023-03-12T10:16:28.958Z,13.25
2023-03-12T10:18:55.671Z,13.28
2023-03-12T10:21:22.046Z,13.35
2023-03-12T10:23:48.600Z,13.46
2023-03-12T10:26:15.015Z,13.55
2023-03-12T10:28:41.984Z,13.64
2023-03-12T10:31:08.494Z,13.71
2023-03-12T10:33:35.137Z,13.75
2023-03-12T10:36:01.511Z,13.82
2023-03-12T10:38:27.888Z,13.87
2023-03-12T10:40:54.414Z,13.93
2023-03-12T10:43:20.857Z,13.98
2023-03-12T10:45:47.202Z,14.04
2023-03-12T10:48:14.025Z,14.10
2023-03-12T10:50:40.392Z,14.19
2023-03-12T10:53:06.684Z,14.26
2023-03-12T10:55:33.219Z,14.34
2023-03-12T10:57:59.626Z,14.38
2023-03-12T11:00:26.174Z,14.46
2023-03-12T11:02:53.261Z,14.43
2023-03-12T11:05:19.893Z,14.50
2023-03-12T11:07:46.720Z,14.57
2023-03-12T11:10:14.357Z,14.61
2023-03-12T11:12:41.499Z,14.69
2023-03-12T11:15:07.907Z,14.74
2023-03-12T11:17:34.275Z,14.80
2023-03-12T11:20:00.720Z,14.86
2023-03-12T11:22:27.722Z,14.90
2023-03-12T11:24:54.301Z,14.96
2023-03-12T11:27:20.673Z,15.04
2023-03-12T11:29:47.225Z,15.10
2023-03-12T11:32:13.795Z,15.15
2023-03-12T11:34:40.336Z,15.21
2023-03-12T11:37:07.215Z,15.25
2023-03-12T11:39:33.660Z,15.29
2023-03-12T11:42:00.121Z,15.36
2023-03-12T11:44:26.938Z,15.39
2023-03-12T11:46:53.330Z,15.48
2023-03-12T11:49:20.069Z,15.55
2023-03-12T11:51:46.667Z,15.61
2023-03-12T11:54:13.339Z,15.64
2023-03-12T11:56:39.758Z,15.69
2023-03-12T11:59:06.065Z,15.73
2023-03-12T12:01:32.541Z,15.78
2023-03-12T12:03:59.112Z,15.84
2023-03-12T12:06:25.912Z,15.89
2023-03-12T12:08:52.602Z,15.93
2023-03-12T12:11:19.216Z,15.98
2023-03-12T12:13:45.824Z,16.03
2023-03-12T12:16:12.296Z,16.03
2023-03-12T12:18:39.412Z,16.00
2023-03-12T12:21:05.792Z,16.05
2023-03-12T12:23:32.253Z,16.13
2023-03-12T12:25:59.430Z,16.16
2023-03-12T12:28:26.228Z,16.18
2023-03-12T12:30:52.571Z,16.21
2023-03-12T12:33:19.524Z,16.24
2023-03-12T12:35:46.317Z,16.27
2023-03-12T12:38:13.459Z,16.34
2023-03-12T12:40:39.854Z,16.40
2023-03-12T12:43:06.508Z,16.45
2023-03-12T12:45:32.898Z,16.50
2023-03-12T12:47:59.780Z,16.55
2023-03-12T12:50:26.368Z,16.60
2023-03-12T12:52:52.836Z,16.64
2023-03-12T12:55:19.883Z,16.68
2023-03-12T12:57:46.262Z,16.72
2023-03-12T13:00:13.046Z,16.79
2023-03-12T13:02:39.880Z,16.83
2023-03-12T13:05:06.255Z,16.88
2023-03-12T13:07:32.595Z,16.93
2023-03-12T13:09:59.439Z,17.01
2023-03-12T13:12:26.329Z,17.07
2023-03-12T13:14:53.081Z,17.11
2023-03-12T13:17:19.440Z,17.13
2023-03-12T13:19:55.297Z,17.17
2023-03-12T13:22:25.823Z,17.19
2023-03-12T13:24:52.491Z,17.22
2023-03-12T13:27:18.856Z,17.26
2023-03-12T13:29:45.756Z,17.26
2023-03-12T13:32:12.088Z,17.25
2023-03-12T13:34:38.579Z,17.28
2023-03-12T13:37:04.939Z,17.33
2023-03-12T13:39:31.647Z,17.37
2023-03-12T13:41:58.530Z,17.40
2023-03-12T13:44:25.194Z,17.30
2023-03-12T13:46:51.623Z,17.20
2023-03-12T13:49:17.987Z,17.13
2023-03-12T13:51:44.383Z,17.09
2023-03-12T13:54:10.720Z,17.04
2023-03-12T13:56:37.047Z,17.02
2023-03-12T13:59:03.538Z,16.96
2023-03-12T14:01:30.038Z,16.92
2023-03-12T14:03:56.450Z,16.87
2023-03-12T14:06:22.968Z,16.84
2023-03-12T14:08:49.292Z,16.79
2023-03-12T14:11:16.163Z,16.75
2023-03-12T14:13:42.715Z,16.71
2023-03-12T14:16:09.435Z,16.67
2023-03-12T14:18:35.876Z,16.64
2023-03-12T14:21:02.691Z,16.61
2023-03-12T14:23:29.581Z,16.56
2023-03-12T14:25:56.476Z,16.55
2023-03-12T14:28:23.083Z,16.53
2023-03-12T14:30:49.643Z,16.50
2023-03-12T14:33:16.150Z,16.48
2023-03-12T14:35:43.255Z,16.43
2023-03-12T14:38:09.643Z,16.41
2023-03-12T14:40:36.037Z,16.39
2023-03-12T14:43:02.411Z,16.36
2023-03-12T14:45:29.143Z,16.34
2023-03-12T14:47:55.518Z,16.31
2023-03-12T14:50:22.007Z,16.28
2023-03-12T14:52:48.350Z,16.25
2023-03-12T14:55:15.202Z,16.25
2023-03-12T14:57:41.594Z,16.23
2023-03-12T15:00:07.993Z,16.20
2023-03-12T15:02:34.329Z,16.18
2023-03-12T15:05:00.929Z,16.17
2023-03-12T15:07:27.594Z,16.15
2023-03-12T15:09:53.959Z,16.14
2023-03-12T15:12:20.322Z,16.13
2023-03-12T15:14:46.892Z,16.11
2023-03-12T15:17:13.211Z,16.08
2023-03-12T15:19:39.951Z,16.07
2023-03-12T15:22:06.719Z,16.05
2023-03-12T15:24:33.116Z,16.02
2023-03-12T15:26:59.429Z,16.00
2023-03-12T15:29:26.215Z,15.97
2023-03-12T15:31:52.978Z,15.95
2023-03-12T15:34:19.825Z,15.94
2023-03-12T15:36:46.244Z,15.93
2023-03-12T15:39:12.814Z,15.89
2023-03-12T15:41:39.254Z,15.89
2023-03-12T15:44:05.818Z,15.86
2023-03-12T15:46:32.682Z,15.84
2023-03-12T15:48:59.432Z,15.82
2023-03-12T15:51:26.027Z,15.83
2023-03-12T15:53:52.744Z,15.80
2023-03-12T15:56:19.315Z,15.79
2023-03-12T15:58:45.663Z,15.76
2023-03-12T16:01:12.218Z,15.74
2023-03-12T16:03:39.308Z,15.73
2023-03-12T16:06:06.014Z,15.71
2023-03-12T16:08:32.666Z,15.69
2023-03-12T16:10:59.135Z,15.67
2023-03-12T16:13:25.615Z,15.64
2023-03-12T16:15:52.013Z,15.64
2023-03-12T16:18:18.379Z,15.61
2023-03-12T16:20:44.776Z,15.61
2023-03-12T16:23:11.768Z,15.59
2023-03-12T16:25:38.187Z,15.57
2023-03-12T16:28:04.958Z,15.57
2023-03-12T16:30:31.898Z,15.53
2023-03-12T16:32:58.444Z,15.54
2023-03-12T16:35:24.880Z,15.50
2023-03-12T16:37:51.524Z,15.49
2023-03-12T16:40:30.913Z,15.47
2023-03-12T16:43:00.221Z,15.45
2023-03-12T16:45:26.726Z,15.44
2023-03-12T16:47:53.117Z,15.41
2023-03-12T16:50:19.733Z,15.39
2023-03-12T16:52:46.100Z,15.37
2023-03-12T16:55:12.514Z,15.37
2023-03-12T16:57:39.416Z,15.35
2023-03-12T17:00:06.257Z,15.32
2023-03-12T17:02:32.921Z,15.30
2023-03-12T17:04:59.808Z,15.29
2023-03-12T17:07:26.159Z,15.25
2023-03-12T17:09:52.634Z,15.26
2023-03-12T17:12:19.491Z,15.23
2023-03-12T17:14:45.918Z,15.21
2023-03-12T17:17:12.750Z,15.20
2023-03-12T17:19:39.360Z,15.18
2023-03-12T17:22:05.767Z,15.17
2023-03-12T17:24:32.152Z,15.16
2023-03-12T17:26:58.894Z,15.13
2023-03-12T17:29:26.323Z,15.12
2023-03-12T17:31:52.841Z,15.11
2023-03-12T17:34:19.691Z,15.08
2023-03-12T17:36:46.217Z,15.08
2023-03-12T17:39:12.781Z,15.07
2023-03-12T17:41:39.161Z,15.05
2023-03-12T17:44:05.859Z,15.04
2023-03-12T17:46:32.280Z,15.01
2023-03-12T17:48:58.753Z,15.00
2023-03-12T17:51:25.240Z,14.97
2023-03-12T17:53:51.587Z,14.96
2023-03-12T17:56:18.004Z,14.95
2023-03-12T17:58:44.446Z,14.93
2023-03-12T18:01:12.649Z,14.92
2023-03-12T18:03:40.050Z,14.91
2023-03-12T18:06:07.673Z,14.88
2023-03-12T18:08:33.964Z,14.87
2023-03-12T18:11:00.397Z,14.86
2023-03-12T18:13:27.053Z,14.84
2023-03-12T18:15:53.455Z,14.84
2023-03-12T18:18:21.194Z,14.84
2023-03-12T18:20:47.600Z,14.80
2023-03-12T18:23:14.205Z,14.80
2023-03-12T18:25:40.723Z,14.78
2023-03-12T18:28:08.028Z,14.77
2023-03-12T18:30:34.610Z,14.76
2023-03-12T18:33:01.438Z,14.75
2023-03-12T18:35:27.896Z,14.74
2023-03-12T18:37:54.348Z,14.73
2023-03-12T18:40:21.263Z,14.70
2023-03-12T18:42:47.804Z,14.71
2023-03-12T18:45:14.179Z,14.70
2023-03-12T18:47:40.574Z,14.68
2023-03-12T18:50:07.445Z,14.68
2023-03-12T18:52:34.051Z,14.65
2023-03-12T18:55:00.455Z,14.65
2023-03-12T18:57:27.823Z,14.64
2023-03-12T18:59:54.225Z,14.63
2023-03-12T19:02:20.616Z,14.61
2023-03-12T19:04:47.047Z,14.60
2023-03-12T19:07:13.641Z,14.60
2023-03-12T19:09:40.174Z,14.59
2023-03-12T19:12:07.023Z,14.59
2023-03-12T19:14:33.401Z,14.59
2023-03-12T19:16:59.784Z,14.58
2023-03-12T19:19:26.769Z,14.58
2023-03-12T19:21:53.191Z,14.58
2023-03-12T19:24:19.600Z,14.55
2023-03-12T19:26:46.092Z,14.54
2023-03-12T19:29:13.101Z,14.53
2023-03-12T19:31:39.634Z,14.54
2023-03-12T19:34:06.098Z,14.52
2023-03-12T19:36:32.571Z,14.52
2023-03-12T19:39:02.386Z,14.50
2023-03-12T19:41:31.113Z,14.49
2023-03-12T19:43:57.988Z,14.50
2023-03-12T19:46:24.861Z,14.48
2023-03-12T19:48:51.746Z,14.48
2023-03-12T19:51:18.194Z,14.46
2023-03-12T19:53:44.841Z,14.45
2023-03-12T19:56:11.669Z,14.44
2023-03-12T19:58:38.270Z,14.43
2023-03-12T20:01:04.632Z,14.43
2023-03-12T20:03:31.021Z,14.42
2023-03-12T20:05:57.613Z,14.39
2023-03-12T20:08:24.031Z,14.40
2023-03-12T20:10:50.608Z,14.39
2023-03-12T20:13:17.795Z,14.38
2023-03-12T20:15:45.031Z,14.38
2023-03-12T20:18:11.426Z,14.36
2023-03-12T20:20:38.442Z,14.36
2023-03-12T20:23:04.907Z,14.36
2023-03-12T20:25:31.612Z,14.34
2023-03-12T20:27:58.389Z,14.33
2023-03-12T20:30:25.184Z,14.33
2023-03-12T20:32:51.564Z,14.32
2023-03-12T20:35:18.110Z,14.31
2023-03-12T20:37:45.331Z,14.31
2023-03-12T20:40:11.872Z,14.30
2023-03-12T20:42:38.303Z,14.30
2023-03-12T20:45:04.735Z,14.29
2023-03-12T20:47:31.471Z,14.27
2023-03-12T20:49:58.326Z,14.27
2023-03-12T20:52:24.766Z,14.26
2023-03-12T20:54:51.429Z,14.24
2023-03-12T20:57:17.973Z,14.25
2023-03-12T20:59:45.558Z,14.24
2023-03-12T21:02:11.868Z,14.23
2023-03-12T21:04:38.264Z,14.22
2023-03-12T21:07:04.912Z,14.22
2023-03-12T21:09:31.306Z,14.21
2023-03-12T21:11:57.692Z,14.21
2023-03-12T21:14:24.210Z,14.20
2023-03-12T21:16:50.626Z,14.18
2023-03-12T21:19:17.108Z,14.19
2023-03-12T21:21:43.471Z,14.18
2023-03-12T21:24:09.915Z,14.18
2023-03-12T21:26:36.340Z,14.16
2023-03-12T21:29:02.676Z,14.16
2023-03-12T21:31:29.515Z,14.15
2023-03-12T21:33:56.224Z,14.14
2023-03-12T21:36:22.755Z,14.15
2023-03-12T21:38:49.162Z,14.16
2023-03-12T21:41:16.011Z,14.14
2023-03-12T21:43:42.425Z,14.13
2023-03-12T21:46:08.746Z,14.15
2023-03-12T21:48:35.306Z,14.15
2023-03-12T21:51:01.804Z,14.11
2023-03-12T21:53:28.206Z,14.09
2023-03-12T21:55:54.854Z,14.11
2023-03-12T21:58:22.293Z,14.12
2023-03-12T22:00:48.722Z,14.09
2023-03-12T22:03:15.166Z,14.11
2023-03-12T22:05:41.538Z,14.10
2023-03-12T22:08:07.984Z,14.08
2023-03-12T22:10:34.413Z,14.07
2023-03-12T22:13:00.870Z,14.08
2023-03-12T22:15:27.260Z,14.07
2023-03-12T22:17:54.107Z,14.06
2023-03-12T22:20:20.618Z,14.06
2023-03-12T22:22:47.931Z,14.05
2023-03-12T22:25:14.209Z,14.04
2023-03-12T22:27:41.035Z,14.06
2023-03-12T22:30:07.418Z,14.02
2023-03-12T22:32:34.058Z,14.04
2023-03-12T22:35:00.459Z,14.02
2023-03-12T22:37:27.347Z,13.99
2023-03-12T22:39:53.633Z,14.01
2023-03-12T22:42:20.602Z,13.98
2023-03-12T22:44:47.837Z,13.99
2023-03-12T22:47:14.179Z,13.99
2023-03-12T22:49:41.004Z,14.00
2023-03-12T22:52:07.376Z,13.96
2023-03-12T22:54:33.888Z,13.97
2023-03-12T22:57:00.590Z,13.96
2023-03-12T22:59:27.596Z,13.94
2023-03-12T23:01:54.008Z,13.96
2023-03-12T23:04:20.518Z,13.93
2023-03-12T23:06:47.382Z,13.93
2023-03-12T23:09:13.952Z,13.95
2023-03-12T23:11:40.691Z,13.92
2023-03-12T23:14:07.664Z,13.93
2023-03-12T23:16:34.125Z,13.92
2023-03-12T23:19:00.689Z,13.90
2023-03-12T23:21:27.174Z,13.91
2023-03-12T23:23:53.691Z,13.91
2023-03-12T23:26:20.041Z,13.89
2023-03-12T23:28:46.397Z,13.89
2023-03-12T23:31:12.991Z,13.88
2023-03-12T23:33:39.757Z,13.88
2023-03-12T23:36:06.265Z,13.88
2023-03-12T23:38:33.946Z,13.85
2023-03-12T23:41:01.001Z,13.88
2023-03-12T23:43:27.491Z,13.87
2023-03-12T23:45:54.040Z,13.85
2023-03-12T23:48:20.401Z,13.86
2023-03-12T23:50:46.791Z,13.84
2023-03-12T23:53:13.108Z,13.83
2023-03-12T23:55:39.469Z,13.87
2023-03-12T23:58:06.098Z,13.84
